createdAt,value
2019-05-29T00:01:10.606Z,100872.08
2019-05-29T00:03:37.341Z,100877.20
2019-05-29T00:06:06.272Z,100879.03
2019-05-29T00:11:15.433Z,100880.44
2019-05-29T00:13:44.126Z,100885.18
2019-05-29T00:16:14.447Z,100894.59
2019-05-29T00:18:43.562Z,100894.52
2019-05-29T00:21:14.610Z,100901.33
2019-05-29T00:23:43.524Z,100908.68
2019-05-29T00:26:12.485Z,100907.16
2019-05-29T00:28:41.670Z,100914.57
2019-05-29T00:37:59.701Z,100923.55
2019-05-29T00:40:28.331Z,100933.95
2019-05-29T00:42:57.286Z,100940.03
2019-05-29T00:45:25.983Z,100943.53
2019-05-29T00:47:55.083Z,100944.06
2019-05-29T00:50:24.376Z,100939.67
2019-05-29T00:52:53.257Z,100938.42
2019-05-29T00:55:21.978Z,100937.78
2019-05-29T00:57:51.431Z,100947.61
2019-05-29T01:00:20.189Z,100944.86
2019-05-29T01:02:49.349Z,100945.08
2019-05-29T01:05:18.460Z,100948.33
2019-05-29T01:07:47.201Z,100954.55
2019-05-29T01:10:16.865Z,100962.20
2019-05-29T01:12:45.516Z,100958.44
2019-05-29T01:15:17.455Z,100965.45
2019-05-29T01:17:46.190Z,100971.13
2019-05-29T01:20:18.080Z,100968.80
2019-05-29T01:22:47.012Z,100967.62
2019-05-29T01:25:16.590Z,100971.27
2019-05-29T01:27:45.702Z,100980.45
2019-05-29T01:30:15.095Z,100982.17
2019-05-29T01:32:44.175Z,100981.55
2019-05-29T01:35:13.763Z,100985.19
2019-05-29T01:37:42.894Z,100987.68
2019-05-29T01:40:21.139Z,100990.98
2019-05-29T01:45:23.603Z,100989.89
2019-05-29T01:47:52.361Z,101000.20
2019-05-29T01:50:21.755Z,101002.85
2019-05-29T01:52:51.191Z,101004.80
2019-05-29T01:57:57.470Z,101010.19
2019-05-29T02:00:26.593Z,101008.50
2019-05-29T02:02:56.089Z,101016.30
2019-05-29T02:05:24.764Z,101016.70
2019-05-29T02:07:53.883Z,101023.49
2019-05-29T02:10:22.778Z,101031.18
2019-05-29T02:12:52.177Z,101034.33
2019-05-29T02:15:29.929Z,101033.63
2019-05-29T02:17:52.132Z,101036.39
2019-05-29T02:20:23.046Z,101043.58
2019-05-29T02:22:52.723Z,101040.02
2019-05-29T02:25:22.766Z,101048.02
2019-05-29T02:30:30.868Z,101051.80
2019-05-29T02:33:00.189Z,101054.97
2019-05-29T02:35:29.707Z,101060.66
2019-05-29T02:37:58.841Z,101059.98
2019-05-29T02:40:29.484Z,101057.89
2019-05-29T02:42:58.400Z,101057.30
2019-05-29T02:45:52.083Z,101061.36
2019-05-29T02:47:57.500Z,101066.47
2019-05-29T02:50:26.791Z,101067.23
2019-05-29T02:55:36.475Z,101071.84
2019-05-29T02:58:05.167Z,101072.97
2019-05-29T03:00:54.335Z,101083.84
2019-05-29T03:03:29.539Z,101089.97
2019-05-29T03:05:57.337Z,101088.65
2019-05-29T03:08:27.284Z,101090.88
2019-05-29T03:10:57.464Z,101102.67
2019-05-29T03:13:27.610Z,101101.28
2019-05-29T03:16:09.332Z,101110.16
2019-05-29T03:18:30.010Z,101115.86
2019-05-29T03:20:59.134Z,101123.06
2019-05-29T03:23:28.989Z,101124.84
2019-05-29T03:25:59.101Z,101131.73
2019-05-29T03:28:29.802Z,101136.70
2019-05-29T03:30:58.696Z,101136.59
2019-05-29T03:33:32.489Z,101139.92
2019-05-29T03:35:58.207Z,101141.45
2019-05-29T03:38:28.291Z,101147.87
2019-05-29T03:40:57.196Z,101154.95
2019-05-29T03:43:26.246Z,101160.57
2019-05-29T03:45:54.816Z,101160.97
2019-05-29T03:48:23.703Z,101164.34
2019-05-29T03:50:52.366Z,101167.22
2019-05-29T03:53:21.052Z,101165.00
2019-05-29T03:58:30.950Z,101171.73
2019-05-29T04:01:00.472Z,101184.81
2019-05-29T04:03:30.969Z,101195.03
2019-05-29T04:08:38.435Z,101187.91
2019-05-29T04:11:07.854Z,101204.25
2019-05-29T04:13:38.749Z,101197.82
2019-05-29T04:16:09.709Z,101207.70
2019-05-29T04:18:40.060Z,101207.66
2019-05-29T04:21:10.812Z,101211.95
2019-05-29T04:23:42.806Z,101214.62
2019-05-29T04:26:16.999Z,101226.04
2019-05-29T04:28:47.023Z,101228.20
2019-05-29T04:31:16.009Z,101233.13
2019-05-29T04:33:45.028Z,101235.44
2019-05-29T04:36:14.077Z,101240.62
2019-05-29T04:38:43.042Z,101243.86
2019-05-29T04:41:12.512Z,101245.12
2019-05-29T04:43:41.558Z,101252.67
2019-05-29T04:46:11.870Z,101260.13
2019-05-29T04:48:40.803Z,101254.30
2019-05-29T04:51:09.827Z,101267.00
2019-05-29T04:56:18.660Z,101264.06
2019-05-29T04:58:47.299Z,101268.94
2019-05-29T05:01:15.923Z,101270.66
2019-05-29T05:03:44.982Z,101274.41
2019-05-29T05:06:14.429Z,101273.98
2019-05-29T05:08:42.942Z,101278.35
2019-05-29T05:11:12.451Z,101281.08
2019-05-29T05:13:41.984Z,101283.83
2019-05-29T05:16:10.694Z,101283.05
2019-05-29T05:18:40.224Z,101278.02
2019-05-29T05:21:09.227Z,101285.88
2019-05-29T05:23:38.222Z,101291.34
2019-05-29T05:26:07.742Z,101289.43
2019-05-29T05:28:42.185Z,101299.86
2019-05-29T05:31:10.803Z,101293.56
2019-05-29T05:36:20.041Z,101294.20
2019-05-29T05:38:49.046Z,101304.80
2019-05-29T05:41:18.032Z,101304.39
2019-05-29T05:43:47.446Z,101309.73
2019-05-29T05:46:16.166Z,101311.29
2019-05-29T05:48:44.786Z,101321.69
2019-05-29T05:51:14.228Z,101327.69
2019-05-29T05:53:43.485Z,101329.71
2019-05-29T05:56:12.156Z,101325.17
2019-05-29T05:58:41.964Z,101332.00
2019-05-29T06:03:48.530Z,101330.27
2019-05-29T06:06:17.483Z,101340.23
2019-05-29T06:08:46.099Z,101337.59
2019-05-29T06:11:15.071Z,101345.80
2019-05-29T06:13:43.744Z,101348.25
2019-05-29T06:16:12.411Z,101353.45
2019-05-29T06:18:41.073Z,101354.08
2019-05-29T06:21:10.351Z,101353.89
2019-05-29T06:26:19.101Z,101349.44
2019-05-29T06:28:48.026Z,101357.36
2019-05-29T06:33:54.763Z,101360.14
2019-05-29T06:36:23.407Z,101368.99
2019-05-29T06:38:52.348Z,101368.47
2019-05-29T06:41:21.371Z,101376.01
2019-05-29T06:43:50.339Z,101382.22
2019-05-29T06:46:19.353Z,101382.33
2019-05-29T06:48:58.835Z,101383.97
2019-05-29T06:51:18.678Z,101378.22
2019-05-29T06:53:48.250Z,101392.77
2019-05-29T06:56:17.714Z,101393.52
2019-05-29T06:58:46.727Z,101393.37
2019-05-29T07:01:16.113Z,101395.04
2019-05-29T07:04:11.797Z,101399.78
2019-05-29T07:06:36.444Z,101401.08
2019-05-29T07:09:06.595Z,101405.60
2019-05-29T07:11:35.542Z,101404.52
2019-05-29T07:14:04.765Z,101401.23
2019-05-29T07:16:43.951Z,101408.14
2019-05-29T07:21:36.631Z,101409.00
2019-05-29T07:24:05.257Z,101419.32
2019-05-29T07:26:34.648Z,101425.05
2019-05-29T07:31:44.794Z,101422.83
2019-05-29T07:34:13.852Z,101423.72
2019-05-29T07:36:43.991Z,101431.55
2019-05-29T07:41:50.498Z,101436.34
2019-05-29T07:44:19.059Z,101435.25
2019-05-29T07:46:48.875Z,101439.86
2019-05-29T07:51:56.115Z,101447.08
2019-05-29T07:54:25.335Z,101441.95
2019-05-29T07:56:54.313Z,101452.91
2019-05-29T07:59:23.200Z,101448.23
2019-05-29T08:01:52.740Z,101452.30
2019-05-29T08:04:21.691Z,101453.52
2019-05-29T08:06:54.397Z,101454.45
2019-05-29T08:09:21.544Z,101453.44
2019-05-29T08:14:31.104Z,101452.48
2019-05-29T08:16:59.967Z,101467.08
2019-05-29T08:19:28.811Z,101468.84
2019-05-29T08:21:57.441Z,101469.36
2019-05-29T08:24:27.300Z,101466.61
2019-05-29T08:26:56.057Z,101470.48
2019-05-29T08:29:25.044Z,101472.12
2019-05-29T08:31:53.936Z,101468.76
2019-05-29T08:34:23.582Z,101477.41
2019-05-29T08:39:36.001Z,101476.91
2019-05-29T08:42:21.505Z,101490.64
2019-05-29T08:44:31.108Z,101490.64
2019-05-29T08:47:09.735Z,101492.82
2019-05-29T08:49:30.835Z,101497.53
2019-05-29T08:54:45.969Z,101496.92
2019-05-29T08:57:14.931Z,101493.11
2019-05-29T08:59:44.420Z,101493.11
2019-05-29T09:02:13.070Z,101493.66
2019-05-29T09:04:43.023Z,101489.52
2019-05-29T09:07:11.983Z,101503.55
2019-05-29T09:09:40.611Z,101501.59
2019-05-29T09:12:09.204Z,101498.56
2019-05-29T09:14:38.186Z,101503.78
2019-05-29T09:17:07.713Z,101501.45
2019-05-29T09:19:37.025Z,101503.61
2019-05-29T09:22:05.904Z,101505.36
2019-05-29T09:24:34.934Z,101508.41
2019-05-29T09:29:41.101Z,101509.92
2019-05-29T09:32:09.673Z,101518.70
2019-05-29T09:37:22.411Z,101515.90
2019-05-29T09:39:52.159Z,101518.75
2019-05-29T09:42:23.549Z,101527.11
2019-05-29T09:44:52.404Z,101525.56
2019-05-29T09:47:24.080Z,101530.52
2019-05-29T09:49:53.145Z,101532.66
2019-05-29T09:52:21.816Z,101536.68
2019-05-29T09:54:52.942Z,101539.31
2019-05-29T09:57:21.431Z,101542.95
2019-05-29T09:59:50.402Z,101540.61
2019-05-29T10:02:19.087Z,101532.80
2019-05-29T10:04:47.737Z,101536.48
2019-05-29T10:07:16.645Z,101534.58
2019-05-29T10:09:45.226Z,101532.87
2019-05-29T10:12:13.922Z,101539.69
2019-05-29T10:14:42.824Z,101543.73
2019-05-29T10:17:12.941Z,101550.31
2019-05-29T10:19:42.257Z,101540.70
2019-05-29T10:22:11.181Z,101550.09
2019-05-29T10:24:40.484Z,101547.97
2019-05-29T10:27:09.977Z,101537.44
2019-05-29T10:29:38.881Z,101543.41
2019-05-29T10:32:07.483Z,101545.08
2019-05-29T10:34:36.060Z,101537.62
2019-05-29T10:37:04.927Z,101541.72
2019-05-29T10:39:33.831Z,101544.07
2019-05-29T10:42:03.329Z,101542.02
2019-05-29T10:47:11.725Z,101539.95
2019-05-29T10:49:40.702Z,101544.99
2019-05-29T10:52:15.740Z,101544.63
2019-05-29T10:54:40.320Z,101548.73
2019-05-29T10:57:09.155Z,101538.83
2019-05-29T10:59:37.781Z,101546.20
2019-05-29T11:02:07.041Z,101552.25
2019-05-29T11:04:35.791Z,101550.38
2019-05-29T11:07:05.022Z,101551.63
2019-05-29T11:09:44.047Z,101550.70
2019-05-29T11:12:04.628Z,101554.18
2019-05-29T11:14:33.196Z,101552.70
2019-05-29T11:17:01.796Z,101552.93
2019-05-29T11:19:30.913Z,101548.09
2019-05-29T11:22:10.879Z,101552.37
2019-05-29T11:24:30.297Z,101553.85
2019-05-29T11:26:59.334Z,101550.91
2019-05-29T11:29:28.226Z,101555.31
2019-05-29T11:34:34.447Z,101553.33
2019-05-29T11:37:03.276Z,101562.76
2019-05-29T11:39:32.177Z,101560.84
2019-05-29T11:42:00.777Z,101554.57
2019-05-29T11:44:29.332Z,101558.13
2019-05-29T11:46:58.262Z,101551.00
2019-05-29T11:49:26.910Z,101560.81
2019-05-29T11:52:19.298Z,101557.07
2019-05-29T11:54:26.071Z,101557.70
2019-05-29T11:56:55.547Z,101557.06
2019-05-29T12:02:03.339Z,101550.76
2019-05-29T12:04:32.858Z,101556.46
2019-05-29T12:07:02.261Z,101553.25
2019-05-29T12:12:45.464Z,101543.41
2019-05-29T12:17:59.932Z,101547.73
2019-05-29T12:20:27.996Z,101551.94
2019-05-29T12:23:13.327Z,101560.58
2019-05-29T12:25:23.790Z,101559.09
2019-05-29T12:27:52.799Z,101558.61
2019-05-29T12:32:59.255Z,101549.30
2019-05-29T12:35:28.806Z,101555.46
2019-05-29T12:40:34.930Z,101551.26
2019-05-29T12:43:03.891Z,101555.93
2019-05-29T12:45:32.464Z,101557.70
2019-05-29T12:48:06.418Z,101555.02
2019-05-29T12:50:34.636Z,101556.52
2019-05-29T12:53:03.836Z,101550.73
2019-05-29T12:55:32.945Z,101552.39
2019-05-29T12:58:02.325Z,101549.22
2019-05-29T13:00:31.505Z,101545.81
2019-05-29T13:03:00.802Z,101541.97
2019-05-29T13:08:07.195Z,101541.81
2019-05-29T13:10:35.779Z,101547.80
2019-05-29T13:13:10.009Z,101544.55
2019-05-29T13:15:35.335Z,101541.74
2019-05-29T13:18:09.265Z,101541.30
2019-05-29T13:20:34.589Z,101544.38
2019-05-29T13:23:05.463Z,101546.02
2019-05-29T13:25:34.643Z,101546.58
2019-05-29T13:28:05.734Z,101547.31
2019-05-29T13:30:34.724Z,101540.17
2019-05-29T13:35:41.293Z,101542.95
2019-05-29T13:38:09.820Z,101541.33
2019-05-29T13:40:38.883Z,101538.33
2019-05-29T13:43:15.056Z,101541.37
2019-05-29T13:45:38.473Z,101538.22
2019-05-29T13:48:07.563Z,101546.64
2019-05-29T13:50:36.778Z,101538.66
2019-05-29T13:53:05.669Z,101539.71
2019-05-29T13:55:34.333Z,101544.59
2019-05-29T13:58:03.776Z,101539.15
2019-05-29T14:00:34.791Z,101541.53
2019-05-29T14:03:04.818Z,101535.73
2019-05-29T14:05:33.685Z,101543.57
2019-05-29T14:10:40.533Z,101533.23
2019-05-29T14:13:10.337Z,101537.72
2019-05-29T14:15:39.883Z,101538.60
2019-05-29T14:18:09.097Z,101536.45
2019-05-29T14:20:38.125Z,101535.09
2019-05-29T14:23:07.508Z,101539.67
2019-05-29T14:25:36.975Z,101532.16
2019-05-29T14:28:06.808Z,101537.30
2019-05-29T14:30:36.219Z,101532.36
2019-05-29T14:33:06.715Z,101534.88
2019-05-29T14:35:35.858Z,101530.47
2019-05-29T14:38:08.915Z,101527.55
2019-05-29T14:40:36.702Z,101531.77
2019-05-29T14:43:08.521Z,101536.67
2019-05-29T14:45:36.640Z,101537.98
2019-05-29T14:48:06.332Z,101539.52
2019-05-29T14:50:35.408Z,101536.48
2019-05-29T14:53:04.996Z,101534.77
2019-05-29T14:58:14.418Z,101543.65
2019-05-29T15:00:43.397Z,101544.93
2019-05-29T15:03:13.459Z,101551.06
2019-05-29T15:05:42.815Z,101552.12
2019-05-29T15:08:12.065Z,101550.64
2019-05-29T15:10:40.850Z,101549.04
2019-05-29T15:13:11.166Z,101553.59
2019-05-29T15:15:41.339Z,101553.08
2019-05-29T15:18:15.151Z,101551.00
2019-05-29T15:20:42.809Z,101551.16
2019-05-29T15:23:11.651Z,101550.09
2019-05-29T15:25:41.139Z,101551.05
2019-05-29T15:28:13.630Z,101549.25
2019-05-29T15:30:41.438Z,101551.77
2019-05-29T15:33:10.949Z,101553.92
2019-05-29T15:35:39.951Z,101547.20
2019-05-29T15:38:10.663Z,101551.52
2019-05-29T15:40:40.903Z,101555.03
2019-05-29T15:43:10.812Z,101563.25
2019-05-29T15:45:40.010Z,101563.23
2019-05-29T15:48:09.020Z,101568.67
2019-05-29T15:50:38.345Z,101565.92
2019-05-29T15:53:08.914Z,101561.95
2019-05-29T15:55:37.854Z,101571.55
2019-05-29T16:00:44.922Z,101563.42
2019-05-29T16:03:15.628Z,101563.93
2019-05-29T16:05:45.807Z,101566.86
2019-05-29T16:08:16.085Z,101565.86
2019-05-29T16:10:45.177Z,101565.89
2019-05-29T16:13:15.026Z,101557.29
2019-05-29T16:15:44.533Z,101554.01
2019-05-29T16:18:25.725Z,101557.22
2019-05-29T16:20:44.178Z,101553.30
2019-05-29T16:23:28.243Z,101559.04
2019-05-29T16:25:44.476Z,101556.80
2019-05-29T16:28:15.068Z,101560.08
2019-05-29T16:30:44.874Z,101554.78
2019-05-29T16:33:15.059Z,101556.16
2019-05-29T16:39:31.029Z,101557.72
2019-05-29T16:42:01.179Z,101557.49
2019-05-29T16:44:30.131Z,101559.56
2019-05-29T16:46:58.861Z,101554.69
2019-05-29T16:51:56.831Z,101560.00
2019-05-29T16:54:26.216Z,101564.54
2019-05-29T16:56:54.874Z,101570.30
2019-05-29T16:59:24.937Z,101566.55
2019-05-29T17:01:54.224Z,101571.95
2019-05-29T17:04:23.888Z,101573.70
2019-05-29T17:06:53.041Z,101569.75
2019-05-29T17:09:22.349Z,101564.72
2019-05-29T17:11:51.925Z,101564.72
2019-05-29T17:17:00.578Z,101566.58
2019-05-29T17:19:29.185Z,101569.00
2019-05-29T17:21:58.524Z,101567.27
2019-05-29T17:24:27.649Z,101569.75
2019-05-29T17:29:36.813Z,101564.78
2019-05-29T17:32:05.507Z,101569.44
2019-05-29T17:34:34.513Z,101571.09
2019-05-29T17:37:04.031Z,101572.26
2019-05-29T17:42:09.846Z,101597.94
2019-05-29T17:44:38.518Z,101574.67
2019-05-29T17:47:07.520Z,101581.80
2019-05-29T17:49:36.183Z,101581.80
2019-05-29T17:52:05.190Z,101581.52
2019-05-29T17:54:33.929Z,101585.84
2019-05-29T17:57:03.059Z,101586.56
2019-05-29T17:59:31.755Z,101585.73
2019-05-29T18:02:00.841Z,101592.69
2019-05-29T18:04:29.512Z,101587.50
2019-05-29T18:06:58.166Z,101583.16
2019-05-29T18:12:09.177Z,101582.91
2019-05-29T18:14:37.904Z,101593.53
2019-05-29T18:17:06.581Z,101590.66
2019-05-29T18:19:35.639Z,101592.29
2019-05-29T18:22:04.335Z,101591.45
2019-05-29T18:24:32.893Z,101591.73
2019-05-29T18:27:01.864Z,101590.18
2019-05-29T18:29:30.737Z,101591.51
2019-05-29T18:31:59.681Z,101585.40
2019-05-29T18:34:29.596Z,101583.04
2019-05-29T18:36:59.162Z,101586.72
2019-05-29T18:39:28.439Z,101586.27
2019-05-29T18:41:57.765Z,101591.30
2019-05-29T18:44:26.966Z,101594.03
2019-05-29T18:47:04.595Z,101594.83
2019-05-29T18:49:33.236Z,101591.27
2019-05-29T18:52:02.247Z,101595.44
2019-05-29T18:54:32.975Z,101589.30
2019-05-29T18:57:14.425Z,101591.19
2019-05-29T18:59:32.379Z,101595.66
2019-05-29T19:02:01.348Z,101592.44
2019-05-29T19:04:30.133Z,101594.38
2019-05-29T19:06:59.586Z,101595.75
2019-05-29T19:12:06.478Z,101596.59
2019-05-29T19:14:35.784Z,101602.11
2019-05-29T19:17:05.080Z,101603.34
2019-05-29T19:22:13.685Z,101609.05
2019-05-29T19:24:42.690Z,101611.58
2019-05-29T19:27:11.521Z,101611.60
2019-05-29T19:29:40.527Z,101619.41
2019-05-29T19:32:09.991Z,101626.53
2019-05-29T19:34:38.632Z,101623.94
2019-05-29T19:37:07.250Z,101622.67
2019-05-29T19:39:35.984Z,101630.45
2019-05-29T19:42:04.800Z,101630.79
2019-05-29T19:44:35.017Z,101631.60
2019-05-29T19:47:03.805Z,101633.27
2019-05-29T19:49:32.983Z,101636.05
2019-05-29T19:52:02.329Z,101641.69
2019-05-29T19:54:31.588Z,101646.73
2019-05-29T19:57:00.167Z,101639.55
2019-05-29T19:59:29.993Z,101648.54
2019-05-29T20:01:58.882Z,101650.80
2019-05-29T20:04:28.471Z,101655.73
2019-05-29T20:06:57.937Z,101659.16
2019-05-29T20:09:27.474Z,101655.34
2019-05-29T20:11:56.241Z,101664.06
2019-05-29T20:14:24.944Z,101658.52
2019-05-29T20:16:53.716Z,101663.36
2019-05-29T20:22:02.488Z,101669.86
2019-05-29T20:24:32.708Z,101673.27
2019-05-29T20:29:40.988Z,101663.23
2019-05-29T20:32:09.631Z,101668.19
2019-05-29T20:34:39.055Z,101667.91
2019-05-29T20:37:08.283Z,101669.94
2019-05-29T20:39:36.919Z,101676.00
2019-05-29T20:42:05.554Z,101678.66
2019-05-29T20:44:34.591Z,101678.00
2019-05-29T20:47:03.812Z,101687.28
2019-05-29T20:49:33.774Z,101682.16
2019-05-29T20:52:02.484Z,101679.59
2019-05-29T20:54:31.834Z,101680.17
2019-05-29T20:57:09.978Z,101675.85
2019-05-29T20:59:40.297Z,101681.52
2019-05-29T21:04:48.842Z,101679.21
2019-05-29T21:07:17.506Z,101693.14
2019-05-29T21:09:46.153Z,101695.72
2019-05-29T21:12:15.182Z,101698.06
2019-05-29T21:14:44.744Z,101691.44
2019-05-29T21:17:13.636Z,101693.94
2019-05-29T21:19:42.621Z,101688.59
2019-05-29T21:22:11.220Z,101683.83
2019-05-29T21:24:40.685Z,101683.06
2019-05-29T21:27:09.390Z,101683.83
2019-05-29T21:29:39.118Z,101682.28
2019-05-29T21:32:07.794Z,101683.28
2019-05-29T21:34:37.828Z,101681.53
2019-05-29T21:37:06.483Z,101679.55
2019-05-29T21:39:36.280Z,101675.66
2019-05-29T21:42:05.207Z,101679.88
2019-05-29T21:44:33.849Z,101680.06
2019-05-29T21:47:02.659Z,101683.61
2019-05-29T21:49:31.800Z,101687.28
2019-05-29T21:54:43.554Z,101682.09
2019-05-29T21:57:13.413Z,101679.56
2019-05-29T21:59:42.403Z,101680.59
2019-05-29T22:02:11.996Z,101681.35
2019-05-29T22:04:42.304Z,101685.18
2019-05-29T22:07:11.869Z,101685.27
2019-05-29T22:09:41.438Z,101682.23
2019-05-29T22:12:10.790Z,101681.52
2019-05-29T22:14:39.746Z,101690.87
2019-05-29T22:17:08.539Z,101687.77
2019-05-29T22:19:37.186Z,101683.95
2019-05-29T22:24:45.368Z,101684.70
2019-05-29T22:27:13.934Z,101682.06
2019-05-29T22:29:42.880Z,101681.78
2019-05-29T22:32:11.549Z,101678.31
2019-05-29T22:34:40.264Z,101684.88
2019-05-29T22:37:08.930Z,101684.86
2019-05-29T22:39:37.734Z,101682.61
2019-05-29T22:42:06.590Z,101682.70
2019-05-29T22:44:35.224Z,101675.28
2019-05-29T22:47:04.253Z,101674.53
2019-05-29T22:52:10.948Z,101665.42
2019-05-29T22:54:40.034Z,101661.55
2019-05-29T22:57:08.774Z,101663.39
2019-05-29T22:59:37.771Z,101665.16
2019-05-29T23:02:06.664Z,101664.60
2019-05-29T23:04:35.274Z,101665.75
2019-05-29T23:07:04.803Z,101661.20
2019-05-29T23:09:33.518Z,101665.69
2019-05-29T23:14:39.706Z,101661.80
2019-05-29T23:17:08.910Z,101665.16
2019-05-29T23:19:38.183Z,101666.44
2019-05-29T23:22:07.668Z,101664.53
2019-05-29T23:24:36.944Z,101663.36
2019-05-29T23:27:07.055Z,101668.66
2019-05-29T23:29:48.466Z,101662.51
2019-05-29T23:34:47.807Z,101661.34
2019-05-29T23:37:16.910Z,101667.03
2019-05-29T23:39:45.864Z,101654.95
2019-05-29T23:42:14.877Z,101654.09
2019-05-29T23:44:44.032Z,101655.41
2019-05-29T23:47:12.977Z,101647.94
2019-05-29T23:49:41.633Z,101650.58
2019-05-29T23:52:10.546Z,101650.53
2019-05-29T23:57:18.406Z,101650.60
2019-05-29T23:59:47.211Z,101651.88
